SBSVSBMO

Guest
Details From SBSV - Salvador Bahia Deputado Luis Eduardo M
To SBMO - Zumbi Dos Palmares
Flight Number -
Tags Generated
Created
Modified
Stats Distance 253 nm / 469 km
Max Altitude 0 ft / 0 m
Waypoints 3
Social Downloads 0
Likes 0
Share VATSIM

Download

Looking for another format? Having issues loading an existing format? Contact us
Advertisement - Login to hide

Notes

Generated

Route

SBSV MCO SBMO

ID Type Via Altitude Latitude Longitude Leg Dist Tot Dist Heading (true) Name
O SBSV APT - 0 ft / 0 m -12.90821˚ -38.34316˚ - 0 nm - -
MCO NDB - 0 ft / 0 m -9.51167˚ -35.80450˚ 252 nm 252 nm 37° / 36° MACEIO NDB
O SBMO APT - 0 ft / 0 m -9.50863˚ -35.80332˚ 0 nm 253 nm 21° / 21° -

Altitude Profile

Advertisement - Login to hide

Weather


0- 5 10 15 20 25 30 35+ Temperature / ° C

Clouds and Precipitation
Forecast for 2017-12-14 00:00 UTC. Updated an hour ago

Ground ~20,000 ft ~40,000 ft Winds

SBSV

Details ICAO SBSV (SSA)
Name Salvador Bahia Deputado Luis Eduardo M
Region Brazil
Timezone America/Bahia (UTC-3.0)
Stats Elevation 64 ft / 20 m (AMSL)
Location -12.910994° -38.331043°
Runways 2
Magnetic Variation 23.437° W

METAR

SBSV 140000Z 06005KT 9999 SCT017 BKN070 25/23 Q1013

Decode

TAF

TAF SBSV 132200Z 1400/1424 07009KT 8000 SCT017 TN25/1407Z TX29/1415Z BECMG 1404/1405 05005KT BECMG 1411/1412 09010KT BECMG 1414/1415 12010KT RMK PEU

Decode

Departure Runways

ID Width Length Bearing (true) Bearing (mag) Surface Threshold Offset Overrun Length
10 148 ft / 45 m 9,845 ft / 3,001 m 78.32° 101.76° Asphalt 0 ft / 0 m 205 ft / 62 m
17 148 ft / 45 m 5,014 ft / 1,528 m 144.04° 167.48° Asphalt 0 ft / 0 m 0 ft / 0 m
28 148 ft / 45 m 9,845 ft / 3,001 m 258.31° 281.75° Asphalt 0 ft / 0 m 205 ft / 62 m
35 148 ft / 45 m 5,014 ft / 1,528 m 324.04° 347.48° Asphalt 0 ft / 0 m 0 ft / 0 m

SBMO

Details ICAO SBMO (MCZ)
Name Zumbi Dos Palmares
Region Brazil
Timezone America/Maceio (UTC-3.0)
Stats Elevation 387 ft / 118 m (AMSL)
Location -9.510808° -35.791677°
Runways 1
Magnetic Variation 22.600° W

METAR

SBMO 140000Z 10003KT CAVOK 23/21 Q1016

Decode

TAF

TAF SBMO 132200Z 1400/1424 08007KT 9999 SCT017 TN23/1408Z TX31/1415Z BECMG 1402/1403 04005KT BECMG 1410/1412 09014KT BECMG 1421/1422 08008KT RMK PEU

Decode

Destination Runways

ID Width Length Bearing (true) Bearing (mag) Surface Threshold Offset Overrun Length
12 148 ft / 45 m 8,528 ft / 2,599 m 100.73° 123.33° Asphalt 0 ft / 0 m 210 ft / 64 m
30 148 ft / 45 m 8,528 ft / 2,599 m 280.73° 303.33° Asphalt 0 ft / 0 m 210 ft / 64 m

Approach Navaids

Runway Type Ident Frequency Range Bearing (true) Bearing (mag) Slope Elevation
12 Localiser IMO 109.30 MHz 18 nm / 33 km 100.77° 123.37° - 387 ft / 118 m (AMSL)
12 Glidescope IMO 109.30 MHz 10 nm / 19 km 100.73° 123.33° 3.03° 387 ft / 118 m (AMSL)
12 DME IMO 109.30 MHz 18 nm / 33 km - - - 387 ft / 118 m (AMSL)

Popular Alternatives